Versailles, Kentucky
Current Conditions -  °F | °C
As of 10:54 PM on Wednesday 22 Oct 2014 (Local Time) from KLEX Reporting Station
Overcast Overcast  
Wind Chill: 52°   Ceiling: 2900
Heat Index: 52°   Visibility: 10mi
Dew Point: 40°   Wind: 9mph
Humidity: 63%   Direction: 60°ENE
Pressure: 30.26"   Gusts: NA
Location:  38.05°N, 84.73°W
Report Text: KLEX 230254Z 06008KT 10SM OVC029 11/04 A3026 RMK AO2 SLP247 T01110044 50004
Loading
Personal Weather Stations






























Interactive Weather Map
Tropical Storm Tracking
New forecast layout! Learn more

10-Day Weather Forecast

Advertisements
Track Severe Weather on mobile